sensor_id;sensor_type;location;lat;lon;timestamp;P1;durP1;ratioP1;P2;durP2;ratioP2
28003;SDS011;15330;51.234;6.754;2023-02-10T00:02:12;77.22;;;39.67;;
28003;SDS011;15330;51.234;6.754;2023-02-10T00:04:38;76.63;;;39.38;;
28003;SDS011;15330;51.234;6.754;2023-02-10T00:07:03;68.97;;;37.65;;
28003;SDS011;15330;51.234;6.754;2023-02-10T00:09:28;82.45;;;38.80;;
28003;SDS011;15330;51.234;6.754;2023-02-10T00:11:54;76.55;;;37.50;;
28003;SDS011;15330;51.234;6.754;2023-02-10T00:14:22;76.95;;;38.47;;
28003;SDS011;15330;51.234;6.754;2023-02-10T00:16:51;84.70;;;40.83;;
28003;SDS011;15330;51.234;6.754;2023-02-10T00:19:17;78.20;;;38.53;;
28003;SDS011;15330;51.234;6.754;2023-02-10T00:21:46;81.05;;;39.28;;
28003;SDS011;15330;51.234;6.754;2023-02-10T00:24:12;85.15;;;40.13;;
28003;SDS011;15330;51.234;6.754;2023-02-10T00:26:37;71.90;;;38.40;;
28003;SDS011;15330;51.234;6.754;2023-02-10T00:29:03;75.45;;;38.78;;
28003;SDS011;15330;51.234;6.754;2023-02-10T00:31:28;76.45;;;39.35;;
28003;SDS011;15330;51.234;6.754;2023-02-10T00:33:54;75.72;;;40.25;;
28003;SDS011;15330;51.234;6.754;2023-02-10T00:36:19;77.28;;;40.25;;
28003;SDS011;15330;51.234;6.754;2023-02-10T00:38:46;79.32;;;39.22;;
28003;SDS011;15330;51.234;6.754;2023-02-10T00:41:13;79.55;;;40.10;;
28003;SDS011;15330;51.234;6.754;2023-02-10T00:43:40;77.60;;;39.95;;
28003;SDS011;15330;51.234;6.754;2023-02-10T00:46:07;79.72;;;40.20;;
28003;SDS011;15330;51.234;6.754;2023-02-10T00:48:33;80.68;;;40.40;;
28003;SDS011;15330;51.234;6.754;2023-02-10T00:50:58;78.70;;;40.42;;
28003;SDS011;15330;51.234;6.754;2023-02-10T00:53:24;73.97;;;38.55;;
28003;SDS011;15330;51.234;6.754;2023-02-10T00:55:49;79.20;;;40.15;;
28003;SDS011;15330;51.234;6.754;2023-02-10T00:58:15;77.13;;;37.88;;
28003;SDS011;15330;51.234;6.754;2023-02-10T01:00:40;70.25;;;37.70;;
28003;SDS011;15330;51.234;6.754;2023-02-10T01:03:05;76.07;;;40.63;;
28003;SDS011;15330;51.234;6.754;2023-02-10T01:05:31;73.80;;;38.03;;
28003;SDS011;15330;51.234;6.754;2023-02-10T01:07:57;79.05;;;39.05;;
28003;SDS011;15330;51.234;6.754;2023-02-10T01:10:22;78.25;;;38.65;;
28003;SDS011;15330;51.234;6.754;2023-02-10T01:12:48;71.20;;;38.90;;
28003;SDS011;15330;51.234;6.754;2023-02-10T01:15:13;73.13;;;38.00;;
28003;SDS011;15330;51.234;6.754;2023-02-10T01:17:39;80.10;;;38.95;;
28003;SDS011;15330;51.234;6.754;2023-02-10T01:20:04;76.55;;;39.42;;
28003;SDS011;15330;51.234;6.754;2023-02-10T01:22:34;77.38;;;39.05;;
28003;SDS011;15330;51.234;6.754;2023-02-10T01:25:00;75.03;;;38.72;;
28003;SDS011;15330;51.234;6.754;2023-02-10T01:27:25;72.82;;;38.85;;
28003;SDS011;15330;51.234;6.754;2023-02-10T01:29:51;76.50;;;38.38;;
28003;SDS011;15330;51.234;6.754;2023-02-10T01:32:16;82.32;;;38.65;;
28003;SDS011;15330;51.234;6.754;2023-02-10T01:34:41;86.32;;;40.58;;
28003;SDS011;15330;51.234;6.754;2023-02-10T01:37:07;78.72;;;39.40;;
28003;SDS011;15330;51.234;6.754;2023-02-10T01:39:32;80.55;;;39.53;;
28003;SDS011;15330;51.234;6.754;2023-02-10T01:41:57;81.20;;;39.00;;
28003;SDS011;15330;51.234;6.754;2023-02-10T01:46:48;79.35;;;38.88;;
28003;SDS011;15330;51.234;6.754;2023-02-10T01:49:15;73.90;;;38.78;;
28003;SDS011;15330;51.234;6.754;2023-02-10T01:51:48;83.82;;;38.55;;
28003;SDS011;15330;51.234;6.754;2023-02-10T01:54:16;78.95;;;38.67;;
28003;SDS011;15330;51.234;6.754;2023-02-10T01:56:46;79.40;;;38.80;;
28003;SDS011;15330;51.234;6.754;2023-02-10T01:59:12;78.22;;;39.00;;
28003;SDS011;15330;51.234;6.754;2023-02-10T02:01:39;81.60;;;40.50;;
28003;SDS011;15330;51.234;6.754;2023-02-10T02:04:04;77.25;;;39.20;;
28003;SDS011;15330;51.234;6.754;2023-02-10T02:06:30;82.43;;;39.13;;
28003;SDS011;15330;51.234;6.754;2023-02-10T02:08:56;79.25;;;37.92;;
28003;SDS011;15330;51.234;6.754;2023-02-10T02:12:09;83.25;;;39.55;;
28003;SDS011;15330;51.234;6.754;2023-02-10T02:17:05;79.35;;;40.92;;
28003;SDS011;15330;51.234;6.754;2023-02-10T02:32:04;77.15;;;39.47;;
28003;SDS011;15330;51.234;6.754;2023-02-10T02:34:41;87.82;;;39.17;;
28003;SDS011;15330;51.234;6.754;2023-02-10T02:37:17;79.20;;;40.53;;
28003;SDS011;15330;51.234;6.754;2023-02-10T02:39:48;83.50;;;40.17;;
28003;SDS011;15330;51.234;6.754;2023-02-10T02:42:16;85.00;;;39.85;;
28003;SDS011;15330;51.234;6.754;2023-02-10T02:44:43;84.43;;;41.58;;
28003;SDS011;15330;51.234;6.754;2023-02-10T02:47:17;85.30;;;40.70;;
28003;SDS011;15330;51.234;6.754;2023-02-10T02:57:56;84.68;;;40.45;;
28003;SDS011;15330;51.234;6.754;2023-02-10T03:00:28;91.20;;;42.08;;
28003;SDS011;15330;51.234;6.754;2023-02-10T03:02:56;83.20;;;40.10;;
28003;SDS011;15330;51.234;6.754;2023-02-10T03:05:27;85.97;;;41.63;;
28003;SDS011;15330;51.234;6.754;2023-02-10T03:07:54;87.75;;;41.15;;
28003;SDS011;15330;51.234;6.754;2023-02-10T03:10:19;85.00;;;40.70;;
28003;SDS011;15330;51.234;6.754;2023-02-10T03:12:46;77.78;;;40.63;;
28003;SDS011;15330;51.234;6.754;2023-02-10T03:15:12;81.40;;;41.13;;
28003;SDS011;15330;51.234;6.754;2023-02-10T03:17:37;92.72;;;42.72;;
28003;SDS011;15330;51.234;6.754;2023-02-10T03:20:03;86.25;;;41.80;;
28003;SDS011;15330;51.234;6.754;2023-02-10T03:22:29;83.88;;;40.28;;
28003;SDS011;15330;51.234;6.754;2023-02-10T03:24:54;83.07;;;39.58;;
28003;SDS011;15330;51.234;6.754;2023-02-10T03:27:19;92.75;;;41.58;;
28003;SDS011;15330;51.234;6.754;2023-02-10T03:29:45;83.72;;;40.90;;
28003;SDS011;15330;51.234;6.754;2023-02-10T03:32:10;86.38;;;42.47;;
28003;SDS011;15330;51.234;6.754;2023-02-10T03:34:36;100.40;;;52.53;;
28003;SDS011;15330;51.234;6.754;2023-02-10T03:37:01;98.97;;;50.67;;
28003;SDS011;15330;51.234;6.754;2023-02-10T03:39:27;105.53;;;50.75;;
28003;SDS011;15330;51.234;6.754;2023-02-10T03:41:52;97.22;;;46.03;;
28003;SDS011;15330;51.234;6.754;2023-02-10T03:44:18;93.72;;;43.95;;
28003;SDS011;15330;51.234;6.754;2023-02-10T03:46:44;91.38;;;43.67;;
28003;SDS011;15330;51.234;6.754;2023-02-10T03:49:09;82.75;;;40.75;;
28003;SDS011;15330;51.234;6.754;2023-02-10T03:51:35;89.80;;;42.65;;
28003;SDS011;15330;51.234;6.754;2023-02-10T03:54:00;88.30;;;42.08;;
28003;SDS011;15330;51.234;6.754;2023-02-10T03:56:25;92.10;;;42.90;;
28003;SDS011;15330;51.234;6.754;2023-02-10T03:58:51;86.80;;;42.53;;
28003;SDS011;15330;51.234;6.754;2023-02-10T04:01:17;83.82;;;39.72;;
28003;SDS011;15330;51.234;6.754;2023-02-10T04:03:42;83.38;;;40.83;;
28003;SDS011;15330;51.234;6.754;2023-02-10T04:06:09;88.70;;;41.65;;
28003;SDS011;15330;51.234;6.754;2023-02-10T04:08:35;90.07;;;43.30;;
28003;SDS011;15330;51.234;6.754;2023-02-10T04:11:02;98.20;;;45.58;;
28003;SDS011;15330;51.234;6.754;2023-02-10T04:13:28;94.00;;;44.95;;
28003;SDS011;15330;51.234;6.754;2023-02-10T04:16:06;100.32;;;46.35;;
28003;SDS011;15330;51.234;6.754;2023-02-10T04:18:42;93.78;;;46.40;;
28003;SDS011;15330;51.234;6.754;2023-02-10T04:21:08;101.93;;;49.03;;
28003;SDS011;15330;51.234;6.754;2023-02-10T04:23:35;95.72;;;44.35;;
28003;SDS011;15330;51.234;6.754;2023-02-10T04:26:01;106.97;;;46.40;;
28003;SDS011;15330;51.234;6.754;2023-02-10T04:28:26;95.97;;;44.50;;
28003;SDS011;15330;51.234;6.754;2023-02-10T04:30:53;93.15;;;44.17;;
28003;SDS011;15330;51.234;6.754;2023-02-10T04:33:19;90.15;;;43.03;;
28003;SDS011;15330;51.234;6.754;2023-02-10T04:35:46;87.68;;;42.50;;
28003;SDS011;15330;51.234;6.754;2023-02-10T04:38:15;93.57;;;41.50;;
28003;SDS011;15330;51.234;6.754;2023-02-10T04:40:40;91.60;;;43.17;;
28003;SDS011;15330;51.234;6.754;2023-02-10T04:43:07;90.70;;;41.85;;
28003;SDS011;15330;51.234;6.754;2023-02-10T04:45:32;88.53;;;41.92;;
28003;SDS011;15330;51.234;6.754;2023-02-10T04:47:58;91.22;;;40.05;;
28003;SDS011;15330;51.234;6.754;2023-02-10T04:50:23;85.55;;;40.45;;
28003;SDS011;15330;51.234;6.754;2023-02-10T04:52:48;87.60;;;41.13;;
28003;SDS011;15330;51.234;6.754;2023-02-10T04:55:14;87.38;;;39.05;;
28003;SDS011;15330;51.234;6.754;2023-02-10T04:57:39;94.32;;;41.42;;
28003;SDS011;15330;51.234;6.754;2023-02-10T05:00:05;88.18;;;39.42;;
28003;SDS011;15330;51.234;6.754;2023-02-10T05:02:31;86.65;;;41.92;;
28003;SDS011;15330;51.234;6.754;2023-02-10T05:04:56;92.30;;;41.92;;
28003;SDS011;15330;51.234;6.754;2023-02-10T05:07:21;87.53;;;42.55;;
28003;SDS011;15330;51.234;6.754;2023-02-10T05:09:47;93.07;;;42.50;;
28003;SDS011;15330;51.234;6.754;2023-02-10T05:12:12;95.20;;;41.58;;
28003;SDS011;15330;51.234;6.754;2023-02-10T05:14:37;80.50;;;38.85;;
28003;SDS011;15330;51.234;6.754;2023-02-10T05:17:03;79.15;;;37.10;;
28003;SDS011;15330;51.234;6.754;2023-02-10T05:19:28;78.82;;;37.88;;
28003;SDS011;15330;51.234;6.754;2023-02-10T05:21:54;89.88;;;41.03;;
28003;SDS011;15330;51.234;6.754;2023-02-10T05:24:19;89.45;;;41.83;;
28003;SDS011;15330;51.234;6.754;2023-02-10T05:26:44;87.18;;;40.47;;
28003;SDS011;15330;51.234;6.754;2023-02-10T05:29:10;94.20;;;41.95;;
28003;SDS011;15330;51.234;6.754;2023-02-10T05:31:35;90.38;;;40.28;;
28003;SDS011;15330;51.234;6.754;2023-02-10T05:34:00;90.40;;;41.25;;
28003;SDS011;15330;51.234;6.754;2023-02-10T05:36:25;92.82;;;41.10;;
28003;SDS011;15330;51.234;6.754;2023-02-10T05:38:51;97.75;;;43.45;;
28003;SDS011;15330;51.234;6.754;2023-02-10T05:44:00;98.47;;;43.37;;
28003;SDS011;15330;51.234;6.754;2023-02-10T05:46:25;93.93;;;41.05;;
28003;SDS011;15330;51.234;6.754;2023-02-10T05:48:51;97.47;;;43.42;;
28003;SDS011;15330;51.234;6.754;2023-02-10T05:51:16;100.68;;;44.22;;
28003;SDS011;15330;51.234;6.754;2023-02-10T05:53:41;101.85;;;43.83;;
28003;SDS011;15330;51.234;6.754;2023-02-10T05:56:06;97.05;;;43.35;;
28003;SDS011;15330;51.234;6.754;2023-02-10T05:58:32;108.35;;;43.92;;
28003;SDS011;15330;51.234;6.754;2023-02-10T06:00:58;104.18;;;48.63;;
28003;SDS011;15330;51.234;6.754;2023-02-10T06:03:24;105.43;;;48.40;;
28003;SDS011;15330;51.234;6.754;2023-02-10T06:05:49;108.10;;;50.65;;
28003;SDS011;15330;51.234;6.754;2023-02-10T06:08:15;106.82;;;49.40;;
28003;SDS011;15330;51.234;6.754;2023-02-10T06:10:40;109.40;;;49.47;;
28003;SDS011;15330;51.234;6.754;2023-02-10T06:13:05;109.47;;;46.22;;
28003;SDS011;15330;51.234;6.754;2023-02-10T06:15:31;116.75;;;49.55;;
28003;SDS011;15330;51.234;6.754;2023-02-10T06:17:56;108.97;;;49.42;;
28003;SDS011;15330;51.234;6.754;2023-02-10T06:20:21;103.45;;;45.28;;
28003;SDS011;15330;51.234;6.754;2023-02-10T06:22:47;104.45;;;47.38;;
28003;SDS011;15330;51.234;6.754;2023-02-10T06:25:12;96.65;;;45.78;;
28003;SDS011;15330;51.234;6.754;2023-02-10T06:27:37;93.95;;;45.90;;
28003;SDS011;15330;51.234;6.754;2023-02-10T06:30:03;92.32;;;45.95;;
28003;SDS011;15330;51.234;6.754;2023-02-10T06:32:28;94.72;;;42.88;;
28003;SDS011;15330;51.234;6.754;2023-02-10T06:34:54;99.03;;;43.60;;
28003;SDS011;15330;51.234;6.754;2023-02-10T06:37:19;90.90;;;42.33;;
28003;SDS011;15330;51.234;6.754;2023-02-10T06:39:45;92.50;;;42.40;;
28003;SDS011;15330;51.234;6.754;2023-02-10T06:44:38;96.60;;;40.78;;
28003;SDS011;15330;51.234;6.754;2023-02-10T06:47:03;97.25;;;42.03;;
28003;SDS011;15330;51.234;6.754;2023-02-10T06:49:28;87.43;;;42.03;;
28003;SDS011;15330;51.234;6.754;2023-02-10T06:51:54;94.70;;;41.67;;
28003;SDS011;15330;51.234;6.754;2023-02-10T06:54:20;91.00;;;41.08;;
28003;SDS011;15330;51.234;6.754;2023-02-10T06:56:45;97.78;;;43.22;;
28003;SDS011;15330;51.234;6.754;2023-02-10T06:59:11;83.57;;;39.65;;
28003;SDS011;15330;51.234;6.754;2023-02-10T07:01:37;84.45;;;39.13;;
28003;SDS011;15330;51.234;6.754;2023-02-10T07:04:02;80.38;;;40.03;;
28003;SDS011;15330;51.234;6.754;2023-02-10T07:06:28;94.13;;;40.80;;
28003;SDS011;15330;51.234;6.754;2023-02-10T07:08:53;86.15;;;41.78;;
28003;SDS011;15330;51.234;6.754;2023-02-10T07:11:19;87.97;;;40.90;;
28003;SDS011;15330;51.234;6.754;2023-02-10T07:13:44;92.13;;;43.08;;
28003;SDS011;15330;51.234;6.754;2023-02-10T07:16:09;87.50;;;40.85;;
28003;SDS011;15330;51.234;6.754;2023-02-10T07:18:39;86.35;;;40.17;;
28003;SDS011;15330;51.234;6.754;2023-02-10T07:21:04;86.07;;;40.67;;
28003;SDS011;15330;51.234;6.754;2023-02-10T07:23:30;84.90;;;41.60;;
28003;SDS011;15330;51.234;6.754;2023-02-10T07:25:55;84.32;;;40.92;;
28003;SDS011;15330;51.234;6.754;2023-02-10T07:28:20;87.80;;;38.40;;
28003;SDS011;15330;51.234;6.754;2023-02-10T07:30:46;97.57;;;42.28;;
28003;SDS011;15330;51.234;6.754;2023-02-10T07:33:11;91.93;;;41.47;;
28003;SDS011;15330;51.234;6.754;2023-02-10T07:35:37;84.45;;;40.45;;
28003;SDS011;15330;51.234;6.754;2023-02-10T07:38:02;77.90;;;39.03;;
28003;SDS011;15330;51.234;6.754;2023-02-10T07:40:27;83.97;;;40.08;;
28003;SDS011;15330;51.234;6.754;2023-02-10T07:42:54;78.07;;;38.50;;
28003;SDS011;15330;51.234;6.754;2023-02-10T07:45:21;96.65;;;42.22;;
28003;SDS011;15330;51.234;6.754;2023-02-10T07:47:46;80.50;;;39.40;;
28003;SDS011;15330;51.234;6.754;2023-02-10T07:50:12;84.95;;;40.75;;
28003;SDS011;15330;51.234;6.754;2023-02-10T07:52:37;87.00;;;42.05;;
28003;SDS011;15330;51.234;6.754;2023-02-10T07:55:03;87.03;;;40.78;;
28003;SDS011;15330;51.234;6.754;2023-02-10T07:57:29;94.95;;;41.25;;
28003;SDS011;15330;51.234;6.754;2023-02-10T07:59:55;83.47;;;40.53;;
28003;SDS011;15330;51.234;6.754;2023-02-10T08:02:20;91.18;;;39.63;;
28003;SDS011;15330;51.234;6.754;2023-02-10T08:04:45;89.45;;;40.65;;
28003;SDS011;15330;51.234;6.754;2023-02-10T08:07:11;88.82;;;40.83;;
28003;SDS011;15330;51.234;6.754;2023-02-10T08:09:37;85.93;;;36.85;;
28003;SDS011;15330;51.234;6.754;2023-02-10T08:12:02;84.55;;;41.20;;
28003;SDS011;15330;51.234;6.754;2023-02-10T08:14:28;83.13;;;39.50;;
28003;SDS011;15330;51.234;6.754;2023-02-10T08:16:54;86.10;;;41.05;;
28003;SDS011;15330;51.234;6.754;2023-02-10T08:19:19;83.57;;;40.53;;
28003;SDS011;15330;51.234;6.754;2023-02-10T08:21:45;93.15;;;41.75;;
28003;SDS011;15330;51.234;6.754;2023-02-10T08:24:10;77.75;;;37.05;;
28003;SDS011;15330;51.234;6.754;2023-02-10T08:26:35;76.47;;;37.28;;
28003;SDS011;15330;51.234;6.754;2023-02-10T08:29:01;84.47;;;40.03;;
28003;SDS011;15330;51.234;6.754;2023-02-10T08:31:27;79.07;;;40.08;;
28003;SDS011;15330;51.234;6.754;2023-02-10T08:33:53;73.35;;;37.35;;
28003;SDS011;15330;51.234;6.754;2023-02-10T08:36:19;76.93;;;40.15;;
28003;SDS011;15330;51.234;6.754;2023-02-10T08:38:46;78.40;;;38.88;;
28003;SDS011;15330;51.234;6.754;2023-02-10T08:41:12;87.35;;;40.50;;
28003;SDS011;15330;51.234;6.754;2023-02-10T08:43:38;83.32;;;38.55;;
28003;SDS011;15330;51.234;6.754;2023-02-10T08:46:03;76.85;;;37.72;;
28003;SDS011;15330;51.234;6.754;2023-02-10T08:48:29;80.85;;;38.05;;
28003;SDS011;15330;51.234;6.754;2023-02-10T08:50:55;82.60;;;38.22;;
28003;SDS011;15330;51.234;6.754;2023-02-10T08:53:21;77.40;;;38.17;;
28003;SDS011;15330;51.234;6.754;2023-02-10T08:55:56;71.50;;;37.28;;
28003;SDS011;15330;51.234;6.754;2023-02-10T08:58:26;82.00;;;37.95;;
28003;SDS011;15330;51.234;6.754;2023-02-10T09:00:51;76.93;;;37.60;;
28003;SDS011;15330;51.234;6.754;2023-02-10T09:03:17;81.07;;;39.80;;
28003;SDS011;15330;51.234;6.754;2023-02-10T09:05:43;76.85;;;38.55;;
28003;SDS011;15330;51.234;6.754;2023-02-10T09:08:10;79.07;;;38.88;;
28003;SDS011;15330;51.234;6.754;2023-02-10T09:10:38;71.38;;;36.45;;
28003;SDS011;15330;51.234;6.754;2023-02-10T09:13:05;78.05;;;38.83;;
28003;SDS011;15330;51.234;6.754;2023-02-10T09:15:33;77.18;;;38.20;;
28003;SDS011;15330;51.234;6.754;2023-02-10T09:18:00;71.20;;;37.83;;
28003;SDS011;15330;51.234;6.754;2023-02-10T09:20:26;74.30;;;37.65;;
28003;SDS011;15330;51.234;6.754;2023-02-10T09:22:51;90.10;;;41.80;;
28003;SDS011;15330;51.234;6.754;2023-02-10T09:25:17;83.15;;;40.65;;
28003;SDS011;15330;51.234;6.754;2023-02-10T09:27:42;76.38;;;41.53;;
28003;SDS011;15330;51.234;6.754;2023-02-10T09:30:08;74.78;;;40.92;;
28003;SDS011;15330;51.234;6.754;2023-02-10T09:32:33;81.97;;;45.50;;
28003;SDS011;15330;51.234;6.754;2023-02-10T09:34:59;81.75;;;43.72;;
28003;SDS011;15330;51.234;6.754;2023-02-10T09:37:24;73.43;;;39.80;;
28003;SDS011;15330;51.234;6.754;2023-02-10T09:39:50;74.05;;;40.97;;
28003;SDS011;15330;51.234;6.754;2023-02-10T09:44:55;76.57;;;42.22;;
28003;SDS011;15330;51.234;6.754;2023-02-10T09:47:36;74.57;;;41.13;;
28003;SDS011;15330;51.234;6.754;2023-02-10T09:50:28;82.28;;;45.10;;
28003;SDS011;15330;51.234;6.754;2023-02-10T09:53:16;80.85;;;43.63;;
28003;SDS011;15330;51.234;6.754;2023-02-10T09:55:50;98.72;;;53.63;;
28003;SDS011;15330;51.234;6.754;2023-02-10T10:01:26;72.20;;;37.53;;
28003;SDS011;15330;51.234;6.754;2023-02-10T10:03:59;80.78;;;41.83;;
28003;SDS011;15330;51.234;6.754;2023-02-10T10:06:31;80.38;;;41.78;;
28003;SDS011;15330;51.234;6.754;2023-02-10T10:09:05;86.03;;;41.28;;
28003;SDS011;15330;51.234;6.754;2023-02-10T10:11:57;75.78;;;37.10;;
28003;SDS011;15330;51.234;6.754;2023-02-10T10:14:28;86.53;;;40.63;;
28003;SDS011;15330;51.234;6.754;2023-02-10T10:24:58;77.18;;;38.78;;
28003;SDS011;15330;51.234;6.754;2023-02-10T10:33:14;68.53;;;38.67;;
28003;SDS011;15330;51.234;6.754;2023-02-10T10:35:49;68.03;;;38.25;;
28003;SDS011;15330;51.234;6.754;2023-02-10T10:38:18;75.25;;;41.53;;
28003;SDS011;15330;51.234;6.754;2023-02-10T10:40:51;71.40;;;39.85;;
28003;SDS011;15330;51.234;6.754;2023-02-10T10:43:27;77.53;;;41.50;;
28003;SDS011;15330;51.234;6.754;2023-02-10T10:46:38;79.30;;;43.92;;
28003;SDS011;15330;51.234;6.754;2023-02-10T10:48:48;71.35;;;39.05;;
28003;SDS011;15330;51.234;6.754;2023-02-10T10:51:13;73.63;;;38.22;;
28003;SDS011;15330;51.234;6.754;2023-02-10T10:53:53;70.43;;;39.50;;
28003;SDS011;15330;51.234;6.754;2023-02-10T10:58:47;67.90;;;38.53;;
28003;SDS011;15330;51.234;6.754;2023-02-10T11:01:15;73.03;;;41.60;;
28003;SDS011;15330;51.234;6.754;2023-02-10T11:03:41;77.80;;;43.58;;
28003;SDS011;15330;51.234;6.754;2023-02-10T11:06:16;73.70;;;43.20;;
28003;SDS011;15330;51.234;6.754;2023-02-10T11:08:44;75.47;;;43.75;;
28003;SDS011;15330;51.234;6.754;2023-02-10T11:11:18;69.50;;;40.80;;
28003;SDS011;15330;51.234;6.754;2023-02-10T11:13:50;58.17;;;35.72;;
28003;SDS011;15330;51.234;6.754;2023-02-10T11:16:18;63.13;;;34.88;;
28003;SDS011;15330;51.234;6.754;2023-02-10T11:21:31;60.35;;;33.78;;
28003;SDS011;15330;51.234;6.754;2023-02-10T11:24:01;65.85;;;35.85;;
28003;SDS011;15330;51.234;6.754;2023-02-10T11:26:27;69.25;;;37.67;;
28003;SDS011;15330;51.234;6.754;2023-02-10T11:28:53;62.13;;;35.17;;
28003;SDS011;15330;51.234;6.754;2023-02-10T11:34:02;62.72;;;34.72;;
28003;SDS011;15330;51.234;6.754;2023-02-10T11:36:48;58.08;;;32.00;;
28003;SDS011;15330;51.234;6.754;2023-02-10T11:41:44;58.80;;;32.50;;
28003;SDS011;15330;51.234;6.754;2023-02-10T11:44:30;61.22;;;31.23;;
28003;SDS011;15330;51.234;6.754;2023-02-10T11:49:26;62.28;;;34.05;;
28003;SDS011;15330;51.234;6.754;2023-02-10T11:51:56;58.78;;;32.03;;
28003;SDS011;15330;51.234;6.754;2023-02-10T11:54:24;57.08;;;29.80;;
28003;SDS011;15330;51.234;6.754;2023-02-10T11:57:00;55.80;;;31.63;;
28003;SDS011;15330;51.234;6.754;2023-02-10T12:08:23;56.10;;;29.15;;
28003;SDS011;15330;51.234;6.754;2023-02-10T12:11:09;55.80;;;30.23;;
28003;SDS011;15330;51.234;6.754;2023-02-10T12:19:26;55.85;;;27.90;;
28003;SDS011;15330;51.234;6.754;2023-02-10T12:22:22;57.10;;;28.10;;
28003;SDS011;15330;51.234;6.754;2023-02-10T12:27:33;55.30;;;29.77;;
28003;SDS011;15330;51.234;6.754;2023-02-10T12:39:33;59.83;;;31.45;;
28003;SDS011;15330;51.234;6.754;2023-02-10T12:47:33;61.05;;;32.38;;
28003;SDS011;15330;51.234;6.754;2023-02-10T12:55:38;70.53;;;35.47;;
28003;SDS011;15330;51.234;6.754;2023-02-10T12:58:08;65.38;;;33.70;;
28003;SDS011;15330;51.234;6.754;2023-02-10T13:00:41;70.57;;;36.50;;
28003;SDS011;15330;51.234;6.754;2023-02-10T13:03:13;68.30;;;34.60;;
28003;SDS011;15330;51.234;6.754;2023-02-10T13:05:52;65.70;;;34.40;;
28003;SDS011;15330;51.234;6.754;2023-02-10T13:08:26;60.92;;;32.47;;
28003;SDS011;15330;51.234;6.754;2023-02-10T13:10:59;63.92;;;32.30;;
28003;SDS011;15330;51.234;6.754;2023-02-10T13:13:32;60.83;;;31.80;;
28003;SDS011;15330;51.234;6.754;2023-02-10T13:18:57;60.40;;;32.28;;
28003;SDS011;15330;51.234;6.754;2023-02-10T13:24:24;55.47;;;32.05;;
28003;SDS011;15330;51.234;6.754;2023-02-10T13:27:05;56.42;;;29.48;;
28003;SDS011;15330;51.234;6.754;2023-02-10T13:29:50;61.58;;;32.70;;
28003;SDS011;15330;51.234;6.754;2023-02-10T13:32:40;61.45;;;33.20;;
28003;SDS011;15330;51.234;6.754;2023-02-10T13:35:18;57.40;;;32.42;;
28003;SDS011;15330;51.234;6.754;2023-02-10T13:37:56;62.38;;;34.22;;
28003;SDS011;15330;51.234;6.754;2023-02-10T13:40:25;76.60;;;38.53;;
28003;SDS011;15330;51.234;6.754;2023-02-10T13:42:54;69.85;;;34.65;;
28003;SDS011;15330;51.234;6.754;2023-02-10T13:45:25;66.15;;;35.00;;
28003;SDS011;15330;51.234;6.754;2023-02-10T13:47:54;64.40;;;33.13;;
28003;SDS011;15330;51.234;6.754;2023-02-10T13:50:32;55.22;;;29.38;;
28003;SDS011;15330;51.234;6.754;2023-02-10T13:56:09;51.35;;;27.70;;
28003;SDS011;15330;51.234;6.754;2023-02-10T14:01:37;46.65;;;26.00;;
28003;SDS011;15330;51.234;6.754;2023-02-10T14:04:07;47.08;;;25.33;;
28003;SDS011;15330;51.234;6.754;2023-02-10T14:06:52;47.25;;;24.88;;
28003;SDS011;15330;51.234;6.754;2023-02-10T14:11:53;43.67;;;24.83;;
28003;SDS011;15330;51.234;6.754;2023-02-10T14:19:41;48.55;;;24.52;;
28003;SDS011;15330;51.234;6.754;2023-02-10T14:24:54;42.75;;;22.75;;
28003;SDS011;15330;51.234;6.754;2023-02-10T14:27:24;45.30;;;24.25;;
28003;SDS011;15330;51.234;6.754;2023-02-10T14:30:15;45.40;;;23.48;;
28003;SDS011;15330;51.234;6.754;2023-02-10T14:32:43;39.95;;;24.27;;
28003;SDS011;15330;51.234;6.754;2023-02-10T14:35:20;40.67;;;24.45;;
28003;SDS011;15330;51.234;6.754;2023-02-10T14:37:48;44.88;;;24.33;;
28003;SDS011;15330;51.234;6.754;2023-02-10T14:40:15;48.78;;;23.65;;
28003;SDS011;15330;51.234;6.754;2023-02-10T14:42:42;41.50;;;23.23;;
28003;SDS011;15330;51.234;6.754;2023-02-10T14:45:18;43.25;;;24.20;;
28003;SDS011;15330;51.234;6.754;2023-02-10T14:47:46;44.10;;;24.70;;
28003;SDS011;15330;51.234;6.754;2023-02-10T14:50:24;44.33;;;25.63;;
28003;SDS011;15330;51.234;6.754;2023-02-10T14:57:48;42.50;;;23.98;;
28003;SDS011;15330;51.234;6.754;2023-02-10T15:00:13;47.67;;;24.70;;
28003;SDS011;15330;51.234;6.754;2023-02-10T15:02:39;46.42;;;24.52;;
28003;SDS011;15330;51.234;6.754;2023-02-10T15:05:07;42.30;;;24.88;;
28003;SDS011;15330;51.234;6.754;2023-02-10T15:07:35;41.28;;;24.48;;
28003;SDS011;15330;51.234;6.754;2023-02-10T15:12:52;46.13;;;24.20;;
28003;SDS011;15330;51.234;6.754;2023-02-10T15:15:27;41.13;;;22.63;;
28003;SDS011;15330;51.234;6.754;2023-02-10T15:23:17;43.13;;;23.80;;
28003;SDS011;15330;51.234;6.754;2023-02-10T15:25:42;42.63;;;24.85;;
28003;SDS011;15330;51.234;6.754;2023-02-10T15:33:24;42.30;;;23.02;;
28003;SDS011;15330;51.234;6.754;2023-02-10T15:38:41;42.70;;;23.75;;
28003;SDS011;15330;51.234;6.754;2023-02-10T15:41:14;38.47;;;23.73;;
28003;SDS011;15330;51.234;6.754;2023-02-10T15:46:50;50.83;;;24.17;;
28003;SDS011;15330;51.234;6.754;2023-02-10T15:49:17;38.63;;;23.08;;
28003;SDS011;15330;51.234;6.754;2023-02-10T15:51:53;40.00;;;22.85;;
28003;SDS011;15330;51.234;6.754;2023-02-10T15:54:23;37.65;;;20.50;;
28003;SDS011;15330;51.234;6.754;2023-02-10T15:59:25;35.63;;;19.67;;
28003;SDS011;15330;51.234;6.754;2023-02-10T16:01:56;36.95;;;18.17;;
28003;SDS011;15330;51.234;6.754;2023-02-10T16:04:23;30.88;;;17.63;;
28003;SDS011;15330;51.234;6.754;2023-02-10T16:06:48;30.75;;;18.42;;
28003;SDS011;15330;51.234;6.754;2023-02-10T16:09:14;34.03;;;18.35;;
28003;SDS011;15330;51.234;6.754;2023-02-10T16:11:39;31.08;;;18.33;;
28003;SDS011;15330;51.234;6.754;2023-02-10T16:14:05;31.23;;;18.10;;
28003;SDS011;15330;51.234;6.754;2023-02-10T16:16:30;33.20;;;18.65;;
28003;SDS011;15330;51.234;6.754;2023-02-10T16:18:56;34.88;;;17.88;;
28003;SDS011;15330;51.234;6.754;2023-02-10T16:21:22;34.38;;;18.45;;
28003;SDS011;15330;51.234;6.754;2023-02-10T16:23:47;38.85;;;20.27;;
28003;SDS011;15330;51.234;6.754;2023-02-10T16:26:18;36.00;;;19.88;;
28003;SDS011;15330;51.234;6.754;2023-02-10T16:28:46;33.00;;;19.30;;
28003;SDS011;15330;51.234;6.754;2023-02-10T16:31:11;38.65;;;21.60;;
28003;SDS011;15330;51.234;6.754;2023-02-10T16:33:37;38.00;;;19.90;;
28003;SDS011;15330;51.234;6.754;2023-02-10T16:36:04;34.03;;;19.30;;
28003;SDS011;15330;51.234;6.754;2023-02-10T16:38:30;40.20;;;19.88;;
28003;SDS011;15330;51.234;6.754;2023-02-10T16:40:57;35.78;;;19.67;;
28003;SDS011;15330;51.234;6.754;2023-02-10T16:43:23;36.88;;;20.20;;
28003;SDS011;15330;51.234;6.754;2023-02-10T16:45:48;37.70;;;19.13;;
28003;SDS011;15330;51.234;6.754;2023-02-10T16:48:13;32.70;;;20.02;;
28003;SDS011;15330;51.234;6.754;2023-02-10T16:50:40;32.75;;;18.67;;
28003;SDS011;15330;51.234;6.754;2023-02-10T16:53:08;38.35;;;19.73;;
28003;SDS011;15330;51.234;6.754;2023-02-10T16:55:35;38.88;;;19.52;;
28003;SDS011;15330;51.234;6.754;2023-02-10T16:58:02;40.85;;;20.10;;